HVN1395 VVPC-VVTS
Flight info
| Callsign | HVN1395 |
|---|---|
| Flight time | 0h 44m |
| Altitude | 26000 |
| Route | NOBID1K NOBID W12 BMT DCT DOVIN DOVIN5E |
| Aircraft | A321/M-SDE3FGHIRWY/LB1 |
Departure
| Time | 2026-05-05 11:33 |
|---|---|
| Airport | Phu Cat Airport (VVPC) |
Arrival
| Time | 2026-05-05 12:18 |
|---|---|
| Airport | Tan Son Nhat International Airport (VVTS) |
| Time | Latitude | Longitude | Altitude | Speed | Heading |
|---|---|---|---|---|---|
| 2026-05-05 11:09 | 13.95330 | 109.04765 | 105 ft | 0 kts | 55° |
| 2026-05-05 11:24 | 13.95329 | 109.04763 | 107 ft | 2 kts | 55° |
| 2026-05-05 11:24 | 13.95316 | 109.04741 | 99 ft | 4 kts | 71° |
| 2026-05-05 11:24 | 13.95311 | 109.04720 | 103 ft | 3 kts | 91° |
| 2026-05-05 11:25 | 13.95315 | 109.04699 | 103 ft | 4 kts | 125° |
| 2026-05-05 11:25 | 13.95324 | 109.04688 | 103 ft | 0 kts | 147° |
| 2026-05-05 11:27 | 13.95321 | 109.04691 | 102 ft | 1 kts | 147° |
| 2026-05-05 11:28 | 13.95310 | 109.04698 | 103 ft | 2 kts | 147° |
| 2026-05-05 11:28 | 13.95292 | 109.04710 | 103 ft | 4 kts | 146° |
| 2026-05-05 11:28 | 13.95250 | 109.04739 | 104 ft | 11 kts | 149° |
| 2026-05-05 11:28 | 13.95209 | 109.04713 | 102 ft | 7 kts | 223° |
| 2026-05-05 11:29 | 13.95157 | 109.04724 | 104 ft | 9 kts | 148° |
| 2026-05-05 11:29 | 13.95102 | 109.04762 | 107 ft | 10 kts | 147° |
| 2026-05-05 11:29 | 13.95039 | 109.04804 | 106 ft | 11 kts | 147° |
| 2026-05-05 11:29 | 13.94996 | 109.04833 | 102 ft | 8 kts | 147° |
| 2026-05-05 11:30 | 13.94921 | 109.04884 | 103 ft | 15 kts | 147° |
| 2026-05-05 11:30 | 13.94828 | 109.04946 | 105 ft | 16 kts | 147° |
| 2026-05-05 11:30 | 13.94731 | 109.05012 | 106 ft | 17 kts | 147° |
| 2026-05-05 11:30 | 13.94630 | 109.05080 | 106 ft | 18 kts | 147° |
| 2026-05-05 11:31 | 13.94536 | 109.05144 | 107 ft | 16 kts | 147° |
| 2026-05-05 11:31 | 13.94448 | 109.05139 | 103 ft | 14 kts | 231° |
| 2026-05-05 11:31 | 13.94399 | 109.05064 | 105 ft | 12 kts | 236° |
| 2026-05-05 11:31 | 13.94359 | 109.05005 | 106 ft | 7 kts | 250° |
| 2026-05-05 11:32 | 13.94381 | 109.04982 | 102 ft | 0 kts | 327° |
| 2026-05-05 11:32 | 13.94382 | 109.04981 | 102 ft | 1 kts | 327° |
| 2026-05-05 11:33 | 13.94490 | 109.04909 | 102 ft | 51 kts | 327° |
| 2026-05-05 11:33 | 13.94988 | 109.04575 | 108 ft | 118 kts | 327° |
| 2026-05-05 11:33 | 13.95835 | 109.04003 | 110 ft | 170 kts | 327° |
| 2026-05-05 11:33 | 13.96845 | 109.03349 | 719 ft | 169 kts | 329° |
| 2026-05-05 11:34 | 13.97878 | 109.02666 | 1127 ft | 185 kts | 328° |
| 2026-05-05 11:34 | 13.99016 | 109.01897 | 1303 ft | 207 kts | 328° |
| 2026-05-05 11:34 | 14.00280 | 109.01039 | 1437 ft | 229 kts | 328° |
| 2026-05-05 11:34 | 14.01681 | 109.00088 | 1603 ft | 252 kts | 329° |
| 2026-05-05 11:35 | 14.03089 | 108.98964 | 2201 ft | 262 kts | 311° |
| 2026-05-05 11:35 | 14.03801 | 108.97249 | 2840 ft | 272 kts | 276° |
| 2026-05-05 11:35 | 14.03784 | 108.95262 | 3521 ft | 277 kts | 265° |
| 2026-05-05 11:35 | 14.03540 | 108.93285 | 4227 ft | 280 kts | 262° |
| 2026-05-05 11:36 | 14.03222 | 108.91320 | 4887 ft | 284 kts | 261° |
| 2026-05-05 11:36 | 14.02889 | 108.89304 | 5560 ft | 287 kts | 261° |
| 2026-05-05 11:36 | 14.02564 | 108.87257 | 5921 ft | 291 kts | 259° |
| 2026-05-05 11:36 | 14.01817 | 108.85342 | 6005 ft | 290 kts | 234° |
| 2026-05-05 11:37 | 14.00343 | 108.83928 | 6205 ft | 294 kts | 207° |
| 2026-05-05 11:37 | 13.98457 | 108.83134 | 6912 ft | 292 kts | 198° |
| 2026-05-05 11:37 | 13.96550 | 108.82417 | 7608 ft | 294 kts | 198° |
| 2026-05-05 11:37 | 13.94612 | 108.81694 | 8256 ft | 296 kts | 199° |
| 2026-05-05 11:38 | 13.92671 | 108.80972 | 8898 ft | 298 kts | 199° |
| 2026-05-05 11:38 | 13.90712 | 108.80242 | 9560 ft | 300 kts | 199° |
| 2026-05-05 11:38 | 13.88741 | 108.79508 | 10161 ft | 304 kts | 199° |
| 2026-05-05 11:38 | 13.86685 | 108.78746 | 10299 ft | 325 kts | 199° |
| 2026-05-05 11:39 | 13.84492 | 108.77935 | 10421 ft | 344 kts | 199° |
| 2026-05-05 11:39 | 13.82174 | 108.77075 | 10527 ft | 363 kts | 199° |
| 2026-05-05 11:39 | 13.79747 | 108.76172 | 10666 ft | 378 kts | 199° |
| 2026-05-05 11:39 | 13.77244 | 108.75240 | 11021 ft | 386 kts | 199° |
| 2026-05-05 11:40 | 13.75570 | 108.74617 | 11342 ft | 388 kts | 199° |
| 2026-05-05 11:40 | 13.72150 | 108.73346 | 12018 ft | 392 kts | 199° |
| 2026-05-05 11:40 | 13.69572 | 108.72390 | 12520 ft | 395 kts | 199° |
| 2026-05-05 11:40 | 13.66981 | 108.71429 | 13023 ft | 398 kts | 199° |
| 2026-05-05 11:41 | 13.64366 | 108.70459 | 13536 ft | 401 kts | 199° |
| 2026-05-05 11:41 | 13.61765 | 108.69494 | 14004 ft | 404 kts | 199° |
| 2026-05-05 11:41 | 13.59109 | 108.68509 | 14465 ft | 406 kts | 199° |
| 2026-05-05 11:41 | 13.56409 | 108.67512 | 14925 ft | 409 kts | 199° |
| 2026-05-05 11:42 | 13.53728 | 108.66520 | 15391 ft | 411 kts | 199° |
| 2026-05-05 11:42 | 13.51034 | 108.65523 | 15855 ft | 413 kts | 199° |
| 2026-05-05 11:42 | 13.48346 | 108.64528 | 16323 ft | 416 kts | 199° |
| 2026-05-05 11:42 | 13.45614 | 108.63520 | 16773 ft | 418 kts | 199° |
| 2026-05-05 11:43 | 13.42831 | 108.62494 | 17255 ft | 421 kts | 199° |
| 2026-05-05 11:43 | 13.40059 | 108.61505 | 17717 ft | 423 kts | 198° |
| 2026-05-05 11:43 | 13.37299 | 108.60554 | 18150 ft | 425 kts | 198° |
| 2026-05-05 11:43 | 13.34484 | 108.59599 | 18517 ft | 427 kts | 198° |
| 2026-05-05 11:44 | 13.31656 | 108.58643 | 18865 ft | 430 kts | 198° |
| 2026-05-05 11:44 | 13.28767 | 108.57666 | 19214 ft | 432 kts | 198° |
| 2026-05-05 11:44 | 13.25941 | 108.56707 | 19544 ft | 434 kts | 198° |
| 2026-05-05 11:44 | 13.23067 | 108.55724 | 19881 ft | 437 kts | 198° |
| 2026-05-05 11:45 | 13.20171 | 108.54730 | 20211 ft | 439 kts | 198° |
| 2026-05-05 11:45 | 13.17276 | 108.53734 | 20532 ft | 441 kts | 198° |
| 2026-05-05 11:45 | 13.15302 | 108.53053 | 20744 ft | 443 kts | 198° |
| 2026-05-05 11:45 | 13.11427 | 108.51716 | 21164 ft | 445 kts | 198° |
| 2026-05-05 11:46 | 13.08485 | 108.50703 | 21474 ft | 447 kts | 198° |
| 2026-05-05 11:46 | 13.05523 | 108.49686 | 21784 ft | 449 kts | 198° |
| 2026-05-05 11:46 | 13.02553 | 108.48667 | 22086 ft | 451 kts | 198° |
| 2026-05-05 11:46 | 12.99572 | 108.47647 | 22372 ft | 453 kts | 198° |
| 2026-05-05 11:47 | 12.97600 | 108.46970 | 22560 ft | 455 kts | 198° |
| 2026-05-05 11:47 | 12.93573 | 108.45587 | 22939 ft | 457 kts | 198° |
| 2026-05-05 11:47 | 12.90540 | 108.44544 | 23234 ft | 459 kts | 198° |
| 2026-05-05 11:47 | 12.87514 | 108.43505 | 23502 ft | 461 kts | 198° |
| 2026-05-05 11:48 | 12.81405 | 108.41414 | 23972 ft | 465 kts | 198° |
| 2026-05-05 11:48 | 12.78329 | 108.40362 | 24198 ft | 467 kts | 198° |
| 2026-05-05 11:48 | 12.75244 | 108.39306 | 24429 ft | 469 kts | 198° |
| 2026-05-05 11:49 | 12.72147 | 108.38247 | 24646 ft | 470 kts | 198° |
| 2026-05-05 11:49 | 12.69039 | 108.37184 | 24878 ft | 472 kts | 198° |
| 2026-05-05 11:49 | 12.65916 | 108.36116 | 25095 ft | 473 kts | 199° |
| 2026-05-05 11:49 | 12.62793 | 108.35048 | 25307 ft | 475 kts | 199° |
| 2026-05-05 11:50 | 12.59650 | 108.33973 | 25521 ft | 477 kts | 199° |
| 2026-05-05 11:50 | 12.56491 | 108.32893 | 25742 ft | 479 kts | 198° |
| 2026-05-05 11:50 | 12.53321 | 108.31813 | 25893 ft | 480 kts | 198° |
| 2026-05-05 11:50 | 12.50170 | 108.30740 | 25924 ft | 475 kts | 198° |
| 2026-05-05 11:51 | 12.47044 | 108.29674 | 25929 ft | 473 kts | 198° |
| 2026-05-05 11:51 | 12.43963 | 108.28621 | 25924 ft | 472 kts | 198° |
| 2026-05-05 11:51 | 12.41853 | 108.27898 | 25931 ft | 472 kts | 198° |
| 2026-05-05 11:51 | 12.38748 | 108.26834 | 25933 ft | 472 kts | 198° |
| 2026-05-05 11:52 | 12.35623 | 108.25765 | 25941 ft | 472 kts | 198° |
| 2026-05-05 11:52 | 12.31499 | 108.24355 | 25940 ft | 472 kts | 198° |
| 2026-05-05 11:52 | 12.28391 | 108.23294 | 25942 ft | 472 kts | 198° |
| 2026-05-05 11:52 | 12.26277 | 108.22574 | 25934 ft | 472 kts | 198° |
| 2026-05-05 11:53 | 12.23162 | 108.21516 | 25942 ft | 472 kts | 198° |
| 2026-05-05 11:53 | 12.20058 | 108.20462 | 25940 ft | 472 kts | 198° |
| 2026-05-05 11:53 | 12.15919 | 108.19051 | 25942 ft | 472 kts | 198° |
| 2026-05-05 11:53 | 12.13818 | 108.18336 | 25935 ft | 472 kts | 198° |
| 2026-05-05 11:54 | 12.10702 | 108.17274 | 25939 ft | 471 kts | 198° |
| 2026-05-05 11:54 | 12.07592 | 108.16216 | 25947 ft | 471 kts | 198° |
| 2026-05-05 11:54 | 12.04517 | 108.15168 | 25934 ft | 471 kts | 198° |
| 2026-05-05 11:54 | 12.01402 | 108.14107 | 25942 ft | 471 kts | 198° |
| 2026-05-05 11:55 | 11.98295 | 108.13050 | 25941 ft | 471 kts | 198° |
| 2026-05-05 11:55 | 11.95183 | 108.11992 | 25945 ft | 471 kts | 199° |
| 2026-05-05 11:55 | 11.92163 | 108.10704 | 25941 ft | 471 kts | 207° |
| 2026-05-05 11:55 | 11.89377 | 108.08950 | 25934 ft | 471 kts | 216° |
| 2026-05-05 11:56 | 11.86795 | 108.06895 | 25929 ft | 471 kts | 218° |
| 2026-05-05 11:56 | 11.84218 | 108.04830 | 25930 ft | 471 kts | 218° |
| 2026-05-05 11:56 | 11.81652 | 108.02777 | 25926 ft | 471 kts | 218° |
| 2026-05-05 11:56 | 11.79064 | 108.00708 | 25928 ft | 471 kts | 218° |
| 2026-05-05 11:57 | 11.76492 | 107.98656 | 25928 ft | 471 kts | 218° |
| 2026-05-05 11:57 | 11.73899 | 107.96593 | 25926 ft | 471 kts | 218° |
| 2026-05-05 11:57 | 11.71318 | 107.94538 | 25887 ft | 472 kts | 218° |
| 2026-05-05 11:57 | 11.68736 | 107.92479 | 25397 ft | 470 kts | 218° |
| 2026-05-05 11:58 | 11.66160 | 107.90422 | 24589 ft | 471 kts | 218° |
| 2026-05-05 11:58 | 11.63576 | 107.88359 | 23878 ft | 470 kts | 218° |
| 2026-05-05 11:58 | 11.61045 | 107.86341 | 23750 ft | 454 kts | 218° |
| 2026-05-05 11:58 | 11.58583 | 107.84378 | 23396 ft | 445 kts | 217° |
| 2026-05-05 11:59 | 11.56169 | 107.82454 | 22976 ft | 436 kts | 217° |
| 2026-05-05 11:59 | 11.53795 | 107.80562 | 22545 ft | 429 kts | 217° |
| 2026-05-05 11:59 | 11.51463 | 107.78705 | 22117 ft | 423 kts | 217° |
| 2026-05-05 11:59 | 11.49160 | 107.76871 | 21698 ft | 417 kts | 217° |
| 2026-05-05 12:00 | 11.46886 | 107.75061 | 21281 ft | 413 kts | 217° |
| 2026-05-05 12:00 | 11.44626 | 107.73268 | 20854 ft | 409 kts | 217° |
| 2026-05-05 12:00 | 11.42394 | 107.71496 | 20454 ft | 405 kts | 217° |
| 2026-05-05 12:00 | 11.40183 | 107.69737 | 20049 ft | 401 kts | 217° |
| 2026-05-05 12:01 | 11.37988 | 107.67989 | 19629 ft | 398 kts | 217° |
| 2026-05-05 12:01 | 11.35822 | 107.66262 | 19211 ft | 395 kts | 217° |
| 2026-05-05 12:01 | 11.33690 | 107.64565 | 18814 ft | 391 kts | 217° |
| 2026-05-05 12:01 | 11.31562 | 107.62874 | 18417 ft | 388 kts | 217° |
| 2026-05-05 12:02 | 11.29440 | 107.61186 | 17993 ft | 384 kts | 217° |
| 2026-05-05 12:02 | 11.27357 | 107.59529 | 17571 ft | 379 kts | 217° |
| 2026-05-05 12:02 | 11.25307 | 107.57900 | 17195 ft | 365 kts | 217° |
| 2026-05-05 12:02 | 11.23333 | 107.56332 | 16821 ft | 353 kts | 217° |
| 2026-05-05 12:03 | 11.21426 | 107.54815 | 16448 ft | 342 kts | 217° |
| 2026-05-05 12:03 | 11.19553 | 107.53324 | 16084 ft | 337 kts | 217° |
| 2026-05-05 12:03 | 11.17721 | 107.51869 | 15681 ft | 336 kts | 217° |
| 2026-05-05 12:03 | 11.15881 | 107.50410 | 15277 ft | 335 kts | 217° |
| 2026-05-05 12:04 | 11.14044 | 107.48958 | 14872 ft | 334 kts | 217° |
| 2026-05-05 12:04 | 11.12211 | 107.47507 | 14488 ft | 333 kts | 217° |
| 2026-05-05 12:04 | 11.10377 | 107.46054 | 14105 ft | 332 kts | 217° |
| 2026-05-05 12:04 | 11.08558 | 107.44610 | 13728 ft | 331 kts | 217° |
| 2026-05-05 12:05 | 11.06747 | 107.43173 | 13310 ft | 330 kts | 217° |
| 2026-05-05 12:05 | 11.04948 | 107.41742 | 12901 ft | 325 kts | 217° |
| 2026-05-05 12:05 | 11.03178 | 107.40318 | 12504 ft | 323 kts | 220° |
| 2026-05-05 12:05 | 11.01694 | 107.38609 | 12114 ft | 323 kts | 236° |
| 2026-05-05 12:06 | 11.00705 | 107.36565 | 11717 ft | 322 kts | 252° |
| 2026-05-05 12:06 | 11.00062 | 107.34388 | 11347 ft | 321 kts | 253° |
| 2026-05-05 12:06 | 10.99419 | 107.32209 | 10963 ft | 320 kts | 253° |
| 2026-05-05 12:06 | 10.98778 | 107.30047 | 10603 ft | 319 kts | 253° |
| 2026-05-05 12:07 | 10.98137 | 107.27880 | 10216 ft | 318 kts | 253° |
| 2026-05-05 12:07 | 10.97501 | 107.25730 | 9856 ft | 317 kts | 253° |
| 2026-05-05 12:07 | 10.96865 | 107.23589 | 9465 ft | 316 kts | 253° |
| 2026-05-05 12:07 | 10.96229 | 107.21445 | 9063 ft | 315 kts | 253° |
| 2026-05-05 12:08 | 10.95929 | 107.20437 | 8866 ft | 314 kts | 253° |
| 2026-05-05 12:08 | 10.94114 | 107.23615 | 8955 ft | 304 kts | 188° |
| 2026-05-05 12:08 | 10.92044 | 107.23566 | 8846 ft | 293 kts | 172° |
| 2026-05-05 12:09 | 10.90009 | 107.23554 | 8646 ft | 300 kts | 193° |
| 2026-05-05 12:09 | 10.88182 | 107.22548 | 8251 ft | 301 kts | 225° |
| 2026-05-05 12:09 | 10.87142 | 107.20732 | 7871 ft | 300 kts | 257° |
| 2026-05-05 12:09 | 10.87080 | 107.18623 | 7468 ft | 299 kts | 276° |
| 2026-05-05 12:10 | 10.87260 | 107.16511 | 7090 ft | 300 kts | 276° |
| 2026-05-05 12:10 | 10.87441 | 107.14408 | 6764 ft | 298 kts | 276° |
| 2026-05-05 12:10 | 10.86803 | 107.13150 | 8836 ft | 303 kts | 271° |
| 2026-05-05 12:10 | 10.86816 | 107.10945 | 8847 ft | 303 kts | 271° |
| 2026-05-05 12:11 | 10.86829 | 107.08806 | 8853 ft | 303 kts | 271° |
| 2026-05-05 12:11 | 10.86847 | 107.06692 | 8638 ft | 301 kts | 271° |
| 2026-05-05 12:11 | 10.86865 | 107.04567 | 8291 ft | 300 kts | 271° |
| 2026-05-05 12:11 | 10.86883 | 107.02455 | 7965 ft | 297 kts | 271° |
| 2026-05-05 12:12 | 10.86901 | 107.00362 | 7484 ft | 294 kts | 271° |
| 2026-05-05 12:12 | 10.86918 | 106.98295 | 7057 ft | 290 kts | 271° |
| 2026-05-05 12:12 | 10.86934 | 106.96305 | 6841 ft | 273 kts | 271° |
| 2026-05-05 12:12 | 10.86949 | 106.94399 | 6360 ft | 267 kts | 271° |
| 2026-05-05 12:13 | 10.86963 | 106.92536 | 5802 ft | 264 kts | 271° |
| 2026-05-05 12:13 | 10.87075 | 106.90667 | 5195 ft | 261 kts | 277° |
| 2026-05-05 12:13 | 10.87347 | 106.88853 | 4623 ft | 259 kts | 282° |
| 2026-05-05 12:13 | 10.87676 | 106.87057 | 4004 ft | 258 kts | 279° |
| 2026-05-05 12:14 | 10.87955 | 106.85252 | 3389 ft | 257 kts | 278° |
| 2026-05-05 12:14 | 10.88218 | 106.83470 | 3067 ft | 251 kts | 277° |
| 2026-05-05 12:14 | 10.88216 | 106.81756 | 3021 ft | 240 kts | 258° |
| 2026-05-05 12:14 | 10.87723 | 106.80174 | 2780 ft | 234 kts | 247° |
| 2026-05-05 12:15 | 10.87136 | 106.78636 | 2497 ft | 231 kts | 246° |
| 2026-05-05 12:15 | 10.86564 | 106.77130 | 2224 ft | 227 kts | 246° |
| 2026-05-05 12:15 | 10.86001 | 106.75637 | 1944 ft | 217 kts | 246° |
| 2026-05-05 12:15 | 10.85481 | 106.74257 | 1660 ft | 205 kts | 246° |
| 2026-05-05 12:16 | 10.85003 | 106.72985 | 1425 ft | 179 kts | 246° |
| 2026-05-05 12:16 | 10.84571 | 106.71842 | 1184 ft | 166 kts | 247° |
| 2026-05-05 12:16 | 10.84162 | 106.70760 | 980 ft | 161 kts | 246° |
| 2026-05-05 12:16 | 10.83768 | 106.69717 | 782 ft | 157 kts | 248° |
| 2026-05-05 12:17 | 10.83373 | 106.68679 | 584 ft | 158 kts | 250° |
| 2026-05-05 12:17 | 10.82986 | 106.67663 | 365 ft | 154 kts | 250° |
| 2026-05-05 12:17 | 10.82601 | 106.66638 | 120 ft | 153 kts | 252° |
| 2026-05-05 12:17 | 10.82228 | 106.65652 | 42 ft | 138 kts | 251° |
| 2026-05-05 12:18 | 10.81999 | 106.65008 | 37 ft | 53 kts | 245° |
| 2026-05-05 12:18 | 10.81931 | 106.64855 | 37 ft | 21 kts | 249° |
| 2026-05-05 12:18 | 10.81868 | 106.64724 | 36 ft | 21 kts | 235° |
| 2026-05-05 12:18 | 10.81769 | 106.64614 | 38 ft | 21 kts | 220° |
| 2026-05-05 12:19 | 10.81658 | 106.64523 | 38 ft | 21 kts | 223° |
| 2026-05-05 12:19 | 10.81581 | 106.64395 | 36 ft | 22 kts | 246° |
| 2026-05-05 12:19 | 10.81512 | 106.64303 | 36 ft | 5 kts | 176° |
| 2026-05-05 12:19 | 10.81479 | 106.64316 | 37 ft | 5 kts | 160° |
| 2026-05-05 12:20 | 10.81443 | 106.64330 | 37 ft | 8 kts | 159° |
| 2026-05-05 12:20 | 10.81367 | 106.64359 | 37 ft | 13 kts | 159° |
| 2026-05-05 12:20 | 10.81273 | 106.64396 | 36 ft | 15 kts | 154° |
| 2026-05-05 12:20 | 10.81257 | 106.64470 | 38 ft | 10 kts | 75° |
| 2026-05-05 12:21 | 10.81280 | 106.64536 | 38 ft | 10 kts | 69° |
| 2026-05-05 12:21 | 10.81308 | 106.64610 | 40 ft | 16 kts | 69° |
| 2026-05-05 12:21 | 10.81352 | 106.64726 | 39 ft | 18 kts | 69° |
| 2026-05-05 12:21 | 10.81391 | 106.64829 | 41 ft | 12 kts | 69° |
| 2026-05-05 12:22 | 10.81424 | 106.64914 | 41 ft | 14 kts | 69° |
| 2026-05-05 12:22 | 10.81427 | 106.65003 | 39 ft | 13 kts | 139° |
| 2026-05-05 12:22 | 10.81348 | 106.65043 | 37 ft | 13 kts | 160° |
| 2026-05-05 12:22 | 10.81264 | 106.65076 | 37 ft | 9 kts | 159° |
| 2026-05-05 12:23 | 10.81254 | 106.65122 | 37 ft | 7 kts | 71° |
| 2026-05-05 12:23 | 10.81268 | 106.65157 | 37 ft | 9 kts | 69° |
| 2026-05-05 12:23 | 10.81303 | 106.65250 | 36 ft | 11 kts | 69° |
| 2026-05-05 12:23 | 10.81330 | 106.65323 | 37 ft | 12 kts | 69° |
| 2026-05-05 12:24 | 10.81359 | 106.65400 | 37 ft | 11 kts | 68° |
| 2026-05-05 12:24 | 10.81384 | 106.65464 | 37 ft | 10 kts | 69° |
| 2026-05-05 12:24 | 10.81411 | 106.65537 | 37 ft | 11 kts | 69° |
| 2026-05-05 12:24 | 10.81436 | 106.65602 | 37 ft | 11 kts | 69° |
| 2026-05-05 12:25 | 10.81455 | 106.65652 | 37 ft | 0 kts | 69° |
| 2026-05-05 12:25 | 10.81460 | 106.65664 | 34 ft | 4 kts | 68° |
| 2026-05-05 12:25 | 10.81470 | 106.65690 | 37 ft | 0 kts | 69° |
| 2026-05-05 12:25 | 10.81478 | 106.65709 | 37 ft | 4 kts | 56° |
| 2026-05-05 12:26 | 10.81498 | 106.65713 | 37 ft | 3 kts | 356° |
| 2026-05-05 12:26 | 10.81526 | 106.65704 | 37 ft | 4 kts | 338° |
| 2026-05-05 12:26 | 10.81534 | 106.65701 | 37 ft | 3 kts | 339° |
| 2026-05-05 12:26 | 10.81536 | 106.65700 | 37 ft | 0 kts | 339° |
| 2026-05-05 12:27 | 10.81538 | 106.65699 | 37 ft | 1 kts | 336° |